createdAt,value
2022-12-18T00:01:35.069Z,97.60
2022-12-18T00:04:04.498Z,97.31
2022-12-18T00:06:31.565Z,97.74
2022-12-18T00:08:58.557Z,97.73
2022-12-18T00:11:26.914Z,97.99
2022-12-18T00:13:56.579Z,97.63
2022-12-18T00:16:24.604Z,97.95
2022-12-18T00:18:56.610Z,98.01
2022-12-18T00:21:23.274Z,97.58
2022-12-18T00:23:50.502Z,97.62
2022-12-18T00:26:22.948Z,97.69
2022-12-18T00:28:49.868Z,97.68
2022-12-18T00:31:20.035Z,97.98
2022-12-18T00:33:46.750Z,97.92
2022-12-18T00:36:18.486Z,98.01
2022-12-18T00:38:45.043Z,98.00
2022-12-18T00:41:13.328Z,97.83
2022-12-18T00:43:41.074Z,97.29
2022-12-18T00:46:07.664Z,97.01
2022-12-18T00:48:34.091Z,97.31
2022-12-18T00:51:00.397Z,97.60
2022-12-18T00:53:27.025Z,96.59
2022-12-18T00:55:53.367Z,96.84
2022-12-18T00:58:19.830Z,97.00
2022-12-18T01:00:46.232Z,96.60
2022-12-18T01:03:15.783Z,96.84
2022-12-18T01:05:42.747Z,96.87
2022-12-18T01:08:09.303Z,97.01
2022-12-18T01:10:35.669Z,96.34
2022-12-18T01:13:02.130Z,96.37
2022-12-18T01:15:28.682Z,96.13
2022-12-18T01:17:55.216Z,96.47
2022-12-18T01:20:21.701Z,96.43
2022-12-18T01:22:48.048Z,96.63
2022-12-18T01:25:14.408Z,96.44
2022-12-18T01:27:40.897Z,96.36
2022-12-18T01:30:07.992Z,96.31
2022-12-18T01:32:34.679Z,95.86
2022-12-18T01:35:01.052Z,96.08
2022-12-18T01:37:27.415Z,96.26
2022-12-18T01:39:54.193Z,95.95
2022-12-18T01:42:21.462Z,95.97
2022-12-18T01:44:53.949Z,96.38
2022-12-18T01:47:25.818Z,96.25
2022-12-18T01:49:55.390Z,96.28
2022-12-18T01:52:23.225Z,95.92
2022-12-18T01:54:51.827Z,95.71
2022-12-18T01:57:18.345Z,95.81
2022-12-18T01:59:48.810Z,95.57
2022-12-18T02:02:17.556Z,95.48
2022-12-18T02:04:49.405Z,95.71
2022-12-18T02:07:32.081Z,95.74
2022-12-18T02:10:03.820Z,96.09
2022-12-18T02:12:56.210Z,95.29
2022-12-18T02:15:25.472Z,95.60
2022-12-18T02:18:05.276Z,95.01
2022-12-18T02:20:53.235Z,94.95
2022-12-18T02:23:33.276Z,94.23
2022-12-18T02:26:15.733Z,93.83
2022-12-18T02:29:01.134Z,93.29
2022-12-18T02:31:31.870Z,93.89
2022-12-18T02:34:03.366Z,93.52
2022-12-18T02:36:30.927Z,92.80
2022-12-18T02:38:59.293Z,93.42
2022-12-18T02:41:26.595Z,93.41
2022-12-18T02:43:59.358Z,93.36
2022-12-18T02:46:33.245Z,93.00
2022-12-18T02:49:24.630Z,93.79
2022-12-18T02:52:02.232Z,92.77
2022-12-18T02:54:37.411Z,92.68
2022-12-18T02:57:16.096Z,92.72
2022-12-18T02:59:55.850Z,92.85
2022-12-18T03:02:52.446Z,92.38
2022-12-18T03:05:29.181Z,92.51
2022-12-18T03:08:04.528Z,92.79
2022-12-18T03:10:35.271Z,93.90
2022-12-18T03:13:06.907Z,92.92
2022-12-18T03:15:43.138Z,92.62
2022-12-18T03:18:15.894Z,92.48
2022-12-18T03:20:45.896Z,91.50
2022-12-18T03:23:16.577Z,91.16
2022-12-18T03:25:45.529Z,91.58
2022-12-18T03:28:17.169Z,91.76
2022-12-18T03:30:46.960Z,92.42
2022-12-18T03:33:19.917Z,92.03
2022-12-18T03:35:47.682Z,92.60
2022-12-18T03:38:14.667Z,92.04
2022-12-18T03:40:44.162Z,92.31
2022-12-18T03:43:38.416Z,92.49
2022-12-18T03:46:16.543Z,93.05
2022-12-18T03:48:47.164Z,93.33
2022-12-18T03:51:25.504Z,92.72
2022-12-18T03:53:58.819Z,92.98
2022-12-18T03:56:30.443Z,92.76
2022-12-18T03:59:00.209Z,93.45
2022-12-18T04:01:32.030Z,94.12
2022-12-18T04:04:01.385Z,93.21
2022-12-18T04:06:30.267Z,93.85
2022-12-18T04:08:58.898Z,93.33
2022-12-18T04:11:25.495Z,93.24
2022-12-18T04:13:56.938Z,92.77
2022-12-18T04:16:23.362Z,92.42
2022-12-18T04:18:49.752Z,92.73
2022-12-18T04:21:16.088Z,92.43
2022-12-18T04:23:42.877Z,92.14
2022-12-18T04:26:09.580Z,92.63
2022-12-18T04:28:35.886Z,92.72
2022-12-18T04:31:02.246Z,92.78
2022-12-18T04:33:28.750Z,93.29
2022-12-18T04:35:55.132Z,92.59
2022-12-18T04:38:21.697Z,92.47
2022-12-18T04:40:48.382Z,92.95
2022-12-18T04:43:14.828Z,92.46
2022-12-18T04:45:41.167Z,92.61
2022-12-18T04:48:07.694Z,92.67
2022-12-18T04:50:34.069Z,92.22
2022-12-18T04:53:00.695Z,92.28
2022-12-18T04:55:27.833Z,92.64
2022-12-18T04:57:54.668Z,92.98
2022-12-18T05:00:21.763Z,92.49
2022-12-18T05:02:48.308Z,92.78
2022-12-18T05:05:15.018Z,91.61
2022-12-18T05:07:41.375Z,91.42
2022-12-18T05:10:08.950Z,91.15
2022-12-18T05:12:36.815Z,91.64
2022-12-18T05:15:06.913Z,91.78
2022-12-18T05:17:33.245Z,91.44
2022-12-18T05:19:59.606Z,91.48
2022-12-18T05:22:25.945Z,91.67
2022-12-18T05:24:52.243Z,90.88
2022-12-18T05:27:18.595Z,91.32
2022-12-18T05:29:44.930Z,90.79
2022-12-18T05:32:11.519Z,90.80
2022-12-18T05:34:37.880Z,91.16
2022-12-18T05:37:04.375Z,90.94
2022-12-18T05:39:30.941Z,91.36
2022-12-18T05:41:57.427Z,91.07
2022-12-18T05:44:23.911Z,91.59
2022-12-18T05:46:50.310Z,91.12
2022-12-18T05:49:16.808Z,92.11
2022-12-18T05:51:43.329Z,91.31
2022-12-18T05:54:09.684Z,91.25
2022-12-18T05:56:36.698Z,91.95
2022-12-18T05:59:03.010Z,92.06
2022-12-18T06:01:29.555Z,92.04
2022-12-18T06:03:56.314Z,91.85
2022-12-18T06:06:25.584Z,91.52
2022-12-18T06:08:52.351Z,91.68
2022-12-18T06:11:24.591Z,91.72
2022-12-18T06:13:58.248Z,92.20
2022-12-18T06:16:26.159Z,92.41
2022-12-18T06:18:52.589Z,92.88
2022-12-18T06:21:19.506Z,92.08
2022-12-18T06:23:45.882Z,91.40
2022-12-18T06:26:13.692Z,91.95
2022-12-18T06:28:40.743Z,91.35
2022-12-18T06:31:07.992Z,90.98
2022-12-18T06:33:35.415Z,91.09
2022-12-18T06:36:07.957Z,91.77
2022-12-18T06:38:35.588Z,91.28
2022-12-18T06:41:06.564Z,91.61
2022-12-18T06:43:32.878Z,91.24
2022-12-18T06:46:03.681Z,92.00
2022-12-18T06:48:30.614Z,91.29
2022-12-18T06:50:57.379Z,91.53
2022-12-18T06:53:24.235Z,91.96
2022-12-18T06:55:51.742Z,91.20
2022-12-18T06:58:19.930Z,91.33
2022-12-18T07:00:46.299Z,91.32
2022-12-18T07:03:12.740Z,91.28
2022-12-18T07:05:42.342Z,91.00
2022-12-18T07:08:08.831Z,90.96
2022-12-18T07:10:49.736Z,91.75
2022-12-18T07:13:18.770Z,91.77
2022-12-18T07:15:45.281Z,91.34
2022-12-18T07:18:11.717Z,90.70
2022-12-18T07:20:38.028Z,91.43
2022-12-18T07:23:05.670Z,91.41
2022-12-18T07:25:38.395Z,91.70
2022-12-18T07:28:05.419Z,90.72
2022-12-18T07:30:32.013Z,90.83
2022-12-18T07:32:58.422Z,90.42
2022-12-18T07:35:25.563Z,91.30
2022-12-18T07:37:52.196Z,90.83
2022-12-18T07:40:18.620Z,91.28
2022-12-18T07:42:44.937Z,91.11
2022-12-18T07:45:11.579Z,90.91
2022-12-18T07:47:38.202Z,90.63
2022-12-18T07:50:05.408Z,90.35
2022-12-18T07:52:31.743Z,91.19
2022-12-18T07:55:00.601Z,90.59
2022-12-18T07:57:49.498Z,90.10
2022-12-18T08:00:14.161Z,90.72
2022-12-18T08:02:40.649Z,90.56
2022-12-18T08:05:09.129Z,89.71
2022-12-18T08:07:35.527Z,90.05
2022-12-18T08:10:01.858Z,89.63
2022-12-18T08:12:28.202Z,88.49
2022-12-18T08:14:54.515Z,88.38
2022-12-18T08:17:22.358Z,88.85
2022-12-18T08:19:48.652Z,88.99
2022-12-18T08:22:14.960Z,88.56
2022-12-18T08:24:41.385Z,88.58
2022-12-18T08:29:54.180Z,88.61
2022-12-18T08:32:20.617Z,88.86
2022-12-18T08:34:48.279Z,88.75
2022-12-18T08:37:14.710Z,88.56
2022-12-18T08:39:41.448Z,88.27
2022-12-18T08:42:10.201Z,88.00
2022-12-18T08:44:36.930Z,86.77
2022-12-18T08:47:03.379Z,87.12
2022-12-18T08:49:29.842Z,86.67
2022-12-18T08:51:58.310Z,85.94
2022-12-18T08:54:26.167Z,85.14
2022-12-18T08:56:52.989Z,83.57
2022-12-18T08:59:20.721Z,83.03
2022-12-18T09:01:48.170Z,81.47
2022-12-18T09:04:14.649Z,81.23
2022-12-18T09:06:41.571Z,82.29
2022-12-18T09:09:11.547Z,82.15
2022-12-18T09:11:38.012Z,82.71
2022-12-18T09:14:06.202Z,82.23
2022-12-18T09:16:33.889Z,82.83
2022-12-18T09:19:00.821Z,83.08
2022-12-18T09:21:29.858Z,83.93
2022-12-18T09:23:57.361Z,84.58
2022-12-18T09:26:24.665Z,84.74
2022-12-18T09:28:51.534Z,84.84
2022-12-18T09:31:20.320Z,84.93
2022-12-18T09:33:49.455Z,84.54
2022-12-18T09:36:17.511Z,85.03
2022-12-18T09:38:45.251Z,84.80
2022-12-18T09:41:32.546Z,84.51
2022-12-18T09:44:06.216Z,84.87
2022-12-18T09:46:39.574Z,84.96
2022-12-18T09:49:13.134Z,84.75
2022-12-18T09:51:51.475Z,84.97
2022-12-18T09:54:24.724Z,85.19
2022-12-18T09:56:51.382Z,84.33
2022-12-18T09:59:24.039Z,84.72
2022-12-18T10:01:53.304Z,84.20
2022-12-18T10:04:20.237Z,84.33
2022-12-18T10:07:11.314Z,84.73
2022-12-18T10:09:59.600Z,84.68
2022-12-18T10:12:43.831Z,84.22
2022-12-18T10:15:35.212Z,83.90
2022-12-18T10:18:22.917Z,83.98
2022-12-18T10:20:53.287Z,84.63
2022-12-18T10:23:31.045Z,84.23
2022-12-18T10:26:06.719Z,83.96
2022-12-18T10:28:38.868Z,84.49
2022-12-18T10:31:16.898Z,83.78
2022-12-18T10:33:43.653Z,84.03
2022-12-18T10:36:10.188Z,84.52
2022-12-18T10:38:39.878Z,84.23
2022-12-18T10:41:24.256Z,84.25
2022-12-18T10:44:13.390Z,83.53
2022-12-18T10:46:40.408Z,83.77
2022-12-18T10:49:20.747Z,84.03
2022-12-18T10:51:49.398Z,83.68
2022-12-18T10:54:19.931Z,84.14
2022-12-18T10:56:46.790Z,83.51
2022-12-18T10:59:15.735Z,82.70
2022-12-18T11:02:00.328Z,82.52
2022-12-18T11:04:30.010Z,82.53
2022-12-18T11:07:08.460Z,82.41
2022-12-18T11:09:39.774Z,82.32
2022-12-18T11:12:20.626Z,81.97
2022-12-18T11:14:50.500Z,82.34
2022-12-18T11:17:39.903Z,82.23
2022-12-18T11:20:21.602Z,82.32
2022-12-18T11:23:16.149Z,81.70
2022-12-18T11:25:52.462Z,82.16
2022-12-18T11:28:35.083Z,81.77
2022-12-18T11:31:20.702Z,81.38
2022-12-18T11:34:27.013Z,81.06
2022-12-18T11:36:46.793Z,81.61
2022-12-18T11:39:21.446Z,80.48
2022-12-18T11:42:28.840Z,80.56
2022-12-18T11:45:09.792Z,79.97
2022-12-18T11:47:53.130Z,80.25
2022-12-18T11:50:25.249Z,81.18
2022-12-18T11:52:56.687Z,80.59
2022-12-18T11:55:44.744Z,80.12
2022-12-18T11:58:46.413Z,80.15
2022-12-18T12:01:24.938Z,80.38
2022-12-18T12:03:57.387Z,79.20
2022-12-18T12:06:43.151Z,79.76
2022-12-18T12:09:35.325Z,79.29
2022-12-18T12:12:40.271Z,79.45
2022-12-18T12:15:31.636Z,79.66
2022-12-18T12:18:20.816Z,79.99
2022-12-18T12:21:11.976Z,78.99
2022-12-18T12:23:44.170Z,79.35
2022-12-18T12:26:53.503Z,79.24
2022-12-18T12:30:04.312Z,79.60
2022-12-18T12:33:09.830Z,79.08
2022-12-18T12:36:03.686Z,79.73
2022-12-18T12:38:55.355Z,78.63
2022-12-18T12:41:26.199Z,78.61
2022-12-18T12:43:53.728Z,79.05
2022-12-18T12:46:24.916Z,79.31
2022-12-18T12:48:57.142Z,78.84
2022-12-18T12:51:32.987Z,78.82
2022-12-18T12:54:01.308Z,78.97
2022-12-18T12:57:03.118Z,79.34
2022-12-18T12:59:55.808Z,79.02
2022-12-18T13:03:16.356Z,78.59
2022-12-18T13:05:59.805Z,78.31
2022-12-18T13:08:51.524Z,78.21
2022-12-18T13:11:48.635Z,78.34
2022-12-18T13:14:24.723Z,78.40
2022-12-18T13:16:52.090Z,78.30
2022-12-18T13:19:27.240Z,78.01
2022-12-18T13:21:55.949Z,77.83
2022-12-18T13:24:27.494Z,76.80
2022-12-18T13:26:54.769Z,77.47
2022-12-18T13:29:46.884Z,77.04
2022-12-18T13:32:22.967Z,76.47
2022-12-18T13:35:22.695Z,76.66
2022-12-18T13:37:54.416Z,75.73
2022-12-18T13:40:43.729Z,76.62
2022-12-18T13:43:40.961Z,75.83
2022-12-18T13:46:26.570Z,76.63
2022-12-18T13:49:00.769Z,75.98
2022-12-18T13:51:29.595Z,75.79
2022-12-18T13:54:02.207Z,75.78
2022-12-18T13:56:32.577Z,75.79
2022-12-18T13:59:12.932Z,75.46
2022-12-18T14:01:45.311Z,75.15
2022-12-18T14:04:22.398Z,75.72
2022-12-18T14:06:52.567Z,75.38
2022-12-18T14:09:25.915Z,75.53
2022-12-18T14:11:54.229Z,75.21
2022-12-18T14:14:20.683Z,75.36
2022-12-18T14:16:49.087Z,74.96
2022-12-18T14:19:18.634Z,75.65
2022-12-18T14:21:50.398Z,76.12
2022-12-18T14:24:20.189Z,75.77
2022-12-18T14:26:48.071Z,75.97
2022-12-18T14:29:24.609Z,75.99
2022-12-18T14:32:20.133Z,75.53
2022-12-18T14:34:53.941Z,75.69
2022-12-18T14:37:25.706Z,76.13
2022-12-18T14:40:07.115Z,76.03
2022-12-18T14:42:37.949Z,74.89
2022-12-18T14:45:43.690Z,74.89
2022-12-18T14:48:22.888Z,75.21
2022-12-18T14:51:18.832Z,75.64
2022-12-18T14:53:54.469Z,75.57
2022-12-18T14:56:23.168Z,75.08
2022-12-18T14:58:53.728Z,74.87
2022-12-18T15:01:39.773Z,74.79
2022-12-18T15:04:26.674Z,74.35
2022-12-18T15:07:18.034Z,74.17
2022-12-18T15:10:11.056Z,73.82
2022-12-18T15:12:39.607Z,73.67
2022-12-18T15:15:26.425Z,73.80
2022-12-18T15:18:19.390Z,73.55
2022-12-18T15:20:51.614Z,73.81
2022-12-18T15:23:24.104Z,72.12
2022-12-18T15:26:06.013Z,72.32
2022-12-18T15:28:39.537Z,72.26
2022-12-18T15:31:09.870Z,72.13
2022-12-18T15:33:39.876Z,72.75
2022-12-18T15:36:14.731Z,71.74
2022-12-18T15:38:41.541Z,72.33
2022-12-18T15:41:17.789Z,72.56
2022-12-18T15:43:48.282Z,72.89
2022-12-18T15:46:22.933Z,73.03
2022-12-18T15:48:55.423Z,72.43
2022-12-18T15:51:29.636Z,73.06
2022-12-18T15:53:59.115Z,73.55
2022-12-18T15:56:25.426Z,73.39
2022-12-18T15:58:52.535Z,72.71
2022-12-18T16:01:19.183Z,73.02
2022-12-18T16:03:46.028Z,72.75
2022-12-18T16:06:12.507Z,72.39
2022-12-18T16:08:38.810Z,72.84
2022-12-18T16:11:10.179Z,72.67
2022-12-18T16:13:36.473Z,72.82
2022-12-18T16:16:02.942Z,72.78
2022-12-18T16:18:29.332Z,72.75
2022-12-18T16:20:55.680Z,73.04
2022-12-18T16:23:21.984Z,72.91
2022-12-18T16:25:48.336Z,73.06
2022-12-18T16:28:14.635Z,73.51
2022-12-18T16:30:40.927Z,73.46
2022-12-18T16:33:07.675Z,73.27
2022-12-18T16:35:34.525Z,73.40
2022-12-18T16:38:00.832Z,73.46
2022-12-18T16:40:27.292Z,72.48
2022-12-18T16:42:53.660Z,73.55
2022-12-18T16:45:20.030Z,72.94
2022-12-18T16:47:46.458Z,72.81
2022-12-18T16:50:13.054Z,73.02
2022-12-18T16:52:39.791Z,73.48
2022-12-18T16:55:07.211Z,72.52
2022-12-18T16:57:33.863Z,72.99
2022-12-18T17:00:05.115Z,72.80
2022-12-18T17:02:32.942Z,72.96
2022-12-18T17:04:59.523Z,72.86
2022-12-18T17:07:26.966Z,73.27
2022-12-18T17:09:53.469Z,72.60
2022-12-18T17:12:20.432Z,72.49
2022-12-18T17:14:46.862Z,73.01
2022-12-18T17:17:22.349Z,73.52
2022-12-18T17:19:49.916Z,73.14
2022-12-18T17:22:16.268Z,73.03
2022-12-18T17:24:42.630Z,73.41
2022-12-18T17:27:08.969Z,72.84
2022-12-18T17:29:35.582Z,73.09
2022-12-18T17:32:01.901Z,73.09
2022-12-18T17:34:28.590Z,73.46
2022-12-18T17:36:56.467Z,73.08
2022-12-18T17:39:22.859Z,73.50
2022-12-18T17:41:49.983Z,74.12
2022-12-18T17:44:18.366Z,73.90
2022-12-18T17:46:46.333Z,73.81
2022-12-18T17:49:14.383Z,73.54
2022-12-18T17:51:41.412Z,73.25
2022-12-18T17:54:08.190Z,73.77
2022-12-18T17:56:34.579Z,73.43
2022-12-18T17:59:00.990Z,73.29
2022-12-18T18:01:28.041Z,74.13
2022-12-18T18:03:55.134Z,73.70
2022-12-18T18:06:22.859Z,73.41
2022-12-18T18:08:50.891Z,73.56
2022-12-18T18:11:19.796Z,73.35
2022-12-18T18:13:47.426Z,73.54
2022-12-18T18:16:13.902Z,73.50
2022-12-18T18:18:40.374Z,73.58
2022-12-18T18:21:08.719Z,73.77
2022-12-18T18:23:36.023Z,73.82
2022-12-18T18:26:04.500Z,73.75
2022-12-18T18:28:31.577Z,73.81
2022-12-18T18:30:58.746Z,74.38
2022-12-18T18:33:25.055Z,74.40
2022-12-18T18:35:54.197Z,74.19
2022-12-18T18:38:21.254Z,74.14
2022-12-18T18:40:47.619Z,74.40
2022-12-18T18:43:14.078Z,73.74
2022-12-18T18:45:40.459Z,74.00
2022-12-18T18:48:08.484Z,73.43
2022-12-18T18:50:34.801Z,73.37
2022-12-18T18:53:01.155Z,73.74
2022-12-18T18:55:28.551Z,73.33
2022-12-18T18:57:54.890Z,72.87
2022-12-18T19:00:21.386Z,73.16
2022-12-18T19:02:47.778Z,72.80
2022-12-18T19:05:14.318Z,72.34
2022-12-18T19:07:40.660Z,72.49
2022-12-18T19:10:07.746Z,73.04
2022-12-18T19:12:35.112Z,72.66
2022-12-18T19:15:03.606Z,72.24
2022-12-18T19:17:31.445Z,72.67
2022-12-18T19:19:57.985Z,72.37
2022-12-18T19:22:24.491Z,72.75
2022-12-18T19:24:51.255Z,72.48
2022-12-18T19:27:17.792Z,72.68
2022-12-18T19:29:44.179Z,71.74
2022-12-18T19:32:10.641Z,72.04
2022-12-18T19:34:38.774Z,71.95
2022-12-18T19:37:07.424Z,71.84
2022-12-18T19:39:34.018Z,71.88
2022-12-18T19:42:00.539Z,71.87
2022-12-18T19:44:26.871Z,72.10
2022-12-18T19:46:53.194Z,71.98
2022-12-18T19:49:22.532Z,72.83
2022-12-18T19:51:50.446Z,72.70
2022-12-18T19:54:17.832Z,73.26
2022-12-18T19:56:45.172Z,75.76
2022-12-18T19:59:11.627Z,76.96
2022-12-18T20:01:39.437Z,78.11
2022-12-18T20:04:06.142Z,77.97
2022-12-18T20:06:45.684Z,78.66
2022-12-18T20:09:12.108Z,80.07
2022-12-18T20:11:41.785Z,81.53
2022-12-18T20:14:12.165Z,81.57
2022-12-18T20:16:39.623Z,82.01
2022-12-18T20:19:07.836Z,83.59
2022-12-18T20:21:34.542Z,83.58
2022-12-18T20:24:00.823Z,82.20
2022-12-18T20:26:27.883Z,83.23
2022-12-18T20:28:55.276Z,84.57
2022-12-18T20:31:22.002Z,83.56
2022-12-18T20:33:49.932Z,85.77
2022-12-18T20:36:21.182Z,85.35
2022-12-18T20:38:49.335Z,85.88
2022-12-18T20:41:18.775Z,86.10
2022-12-18T20:43:45.926Z,86.13
2022-12-18T20:46:15.386Z,86.96
2022-12-18T20:48:42.857Z,86.51
2022-12-18T20:51:12.623Z,87.45
2022-12-18T20:53:41.678Z,87.40
2022-12-18T20:56:17.779Z,88.23
2022-12-18T20:58:48.078Z,88.05
2022-12-18T21:01:17.616Z,87.96
2022-12-18T21:03:45.428Z,88.83
2022-12-18T21:06:12.712Z,88.51
2022-12-18T21:08:39.015Z,89.70
2022-12-18T21:11:28.075Z,88.83
2022-12-18T21:13:54.394Z,89.86
2022-12-18T21:16:20.791Z,90.26
2022-12-18T21:18:47.160Z,90.74
2022-12-18T21:21:13.572Z,90.49
2022-12-18T21:23:40.215Z,90.93
2022-12-18T21:26:20.143Z,91.46
2022-12-18T21:28:47.515Z,92.00
2022-12-18T21:31:14.315Z,91.31
2022-12-18T21:33:40.884Z,91.48
2022-12-18T21:36:07.893Z,91.90
2022-12-18T21:38:34.442Z,92.57
2022-12-18T21:41:00.877Z,92.14
2022-12-18T21:43:27.283Z,91.99
2022-12-18T21:45:56.669Z,92.67
2022-12-18T21:48:25.000Z,93.11
2022-12-18T21:50:51.400Z,92.84
2022-12-18T21:53:17.806Z,92.60
2022-12-18T21:55:44.136Z,92.98
2022-12-18T21:58:10.477Z,92.85
2022-12-18T22:00:36.782Z,92.97
2022-12-18T22:03:16.961Z,93.58
2022-12-18T22:05:45.944Z,93.13
2022-12-18T22:08:14.839Z,94.42
2022-12-18T22:10:41.161Z,93.88
2022-12-18T22:13:07.752Z,94.32
2022-12-18T22:15:34.538Z,94.01
2022-12-18T22:18:00.914Z,94.38
2022-12-18T22:20:28.371Z,94.15
2022-12-18T22:22:56.883Z,94.33
2022-12-18T22:25:23.222Z,94.14
2022-12-18T22:27:49.522Z,94.77
2022-12-18T22:30:15.894Z,94.57
2022-12-18T22:32:42.224Z,94.00
2022-12-18T22:35:14.275Z,94.82
2022-12-18T22:37:42.298Z,94.99
2022-12-18T22:40:23.531Z,95.26
2022-12-18T22:42:50.720Z,95.02
2022-12-18T22:45:22.887Z,95.10
2022-12-18T22:47:49.622Z,94.76
2022-12-18T22:50:15.957Z,94.64
2022-12-18T22:52:42.426Z,94.95
2022-12-18T22:55:09.042Z,94.99
2022-12-18T22:57:35.419Z,95.17
2022-12-18T23:00:05.444Z,94.89
2022-12-18T23:02:31.923Z,94.46
2022-12-18T23:04:58.386Z,95.49
2022-12-18T23:07:24.812Z,94.64
2022-12-18T23:09:51.118Z,94.80
2022-12-18T23:12:25.571Z,94.85
2022-12-18T23:14:52.597Z,94.86
2022-12-18T23:17:18.905Z,95.53
2022-12-18T23:19:49.052Z,95.15
2022-12-18T23:22:16.495Z,95.17
2022-12-18T23:24:42.917Z,95.13
2022-12-18T23:27:11.696Z,94.86
2022-12-18T23:29:38.858Z,95.39
2022-12-18T23:32:05.263Z,95.29
2022-12-18T23:34:31.546Z,94.87
2022-12-18T23:36:57.827Z,95.57
2022-12-18T23:39:28.863Z,95.70
2022-12-18T23:42:00.353Z,95.85
2022-12-18T23:44:27.211Z,96.24
2022-12-18T23:46:53.763Z,96.49
2022-12-18T23:49:20.471Z,96.18
2022-12-18T23:51:46.815Z,96.36
2022-12-18T23:54:13.291Z,96.65
2022-12-18T23:56:39.683Z,96.61
2022-12-18T23:59:06.049Z,97.15
